sensor_id;sensor_type;location;lat;lon;timestamp;P1;durP1;ratioP1;P2;durP2;ratioP2
11854;SDS011;5987;53.140;8.904;2024-02-15T00:01:09;13.87;;;8.33;;
11854;SDS011;5987;53.140;8.904;2024-02-15T00:04:13;13.43;;;7.57;;
11854;SDS011;5987;53.140;8.904;2024-02-15T00:07:18;13.13;;;8.23;;
11854;SDS011;5987;53.140;8.904;2024-02-15T00:10:24;15.07;;;8.20;;
11854;SDS011;5987;53.140;8.904;2024-02-15T00:13:29;12.70;;;7.97;;
11854;SDS011;5987;53.140;8.904;2024-02-15T00:16:35;16.17;;;7.87;;
11854;SDS011;5987;53.140;8.904;2024-02-15T00:19:39;15.03;;;7.23;;
11854;SDS011;5987;53.140;8.904;2024-02-15T00:22:44;10.97;;;7.13;;
11854;SDS011;5987;53.140;8.904;2024-02-15T00:25:49;11.27;;;6.87;;
11854;SDS011;5987;53.140;8.904;2024-02-15T00:28:54;10.73;;;6.27;;
11854;SDS011;5987;53.140;8.904;2024-02-15T00:31:58;12.63;;;7.13;;
11854;SDS011;5987;53.140;8.904;2024-02-15T00:35:03;13.43;;;6.93;;
11854;SDS011;5987;53.140;8.904;2024-02-15T00:38:10;15.90;;;7.37;;
11854;SDS011;5987;53.140;8.904;2024-02-15T00:41:13;14.70;;;7.30;;
11854;SDS011;5987;53.140;8.904;2024-02-15T00:44:18;16.47;;;8.70;;
11854;SDS011;5987;53.140;8.904;2024-02-15T00:47:22;14.60;;;7.83;;
11854;SDS011;5987;53.140;8.904;2024-02-15T00:50:26;15.30;;;8.60;;
11854;SDS011;5987;53.140;8.904;2024-02-15T00:53:30;14.60;;;8.10;;
11854;SDS011;5987;53.140;8.904;2024-02-15T00:56:34;16.37;;;8.27;;
11854;SDS011;5987;53.140;8.904;2024-02-15T00:59:39;13.67;;;7.93;;
11854;SDS011;5987;53.140;8.904;2024-02-15T01:02:43;15.47;;;7.93;;
11854;SDS011;5987;53.140;8.904;2024-02-15T01:05:47;17.77;;;9.10;;
11854;SDS011;5987;53.140;8.904;2024-02-15T01:08:51;15.83;;;9.07;;
11854;SDS011;5987;53.140;8.904;2024-02-15T01:11:55;20.70;;;10.13;;
11854;SDS011;5987;53.140;8.904;2024-02-15T01:15:00;20.80;;;10.13;;
11854;SDS011;5987;53.140;8.904;2024-02-15T01:18:04;19.80;;;9.23;;
11854;SDS011;5987;53.140;8.904;2024-02-15T01:21:08;20.73;;;10.67;;
11854;SDS011;5987;53.140;8.904;2024-02-15T01:24:13;18.53;;;9.20;;
11854;SDS011;5987;53.140;8.904;2024-02-15T01:27:17;16.40;;;9.10;;
11854;SDS011;5987;53.140;8.904;2024-02-15T01:30:22;21.73;;;9.97;;
11854;SDS011;5987;53.140;8.904;2024-02-15T01:33:26;18.10;;;9.07;;
11854;SDS011;5987;53.140;8.904;2024-02-15T01:36:30;20.50;;;10.87;;
11854;SDS011;5987;53.140;8.904;2024-02-15T01:39:33;18.03;;;9.47;;
11854;SDS011;5987;53.140;8.904;2024-02-15T01:42:37;20.53;;;10.20;;
11854;SDS011;5987;53.140;8.904;2024-02-15T01:45:43;18.60;;;10.03;;
11854;SDS011;5987;53.140;8.904;2024-02-15T01:48:48;18.33;;;9.40;;
11854;SDS011;5987;53.140;8.904;2024-02-15T01:51:52;17.80;;;9.17;;
11854;SDS011;5987;53.140;8.904;2024-02-15T01:54:59;19.20;;;9.83;;
11854;SDS011;5987;53.140;8.904;2024-02-15T01:58:10;17.83;;;10.50;;
11854;SDS011;5987;53.140;8.904;2024-02-15T02:01:15;20.10;;;10.50;;
11854;SDS011;5987;53.140;8.904;2024-02-15T02:04:19;19.37;;;9.57;;
11854;SDS011;5987;53.140;8.904;2024-02-15T02:07:24;15.47;;;8.80;;
11854;SDS011;5987;53.140;8.904;2024-02-15T02:10:27;22.77;;;10.17;;
11854;SDS011;5987;53.140;8.904;2024-02-15T02:13:35;18.23;;;10.00;;
11854;SDS011;5987;53.140;8.904;2024-02-15T02:16:40;16.50;;;9.73;;
11854;SDS011;5987;53.140;8.904;2024-02-15T02:19:43;18.27;;;9.97;;
11854;SDS011;5987;53.140;8.904;2024-02-15T02:22:48;22.50;;;11.03;;
11854;SDS011;5987;53.140;8.904;2024-02-15T02:25:58;20.10;;;10.10;;
11854;SDS011;5987;53.140;8.904;2024-02-15T02:29:03;18.40;;;8.20;;
11854;SDS011;5987;53.140;8.904;2024-02-15T02:32:07;18.37;;;10.60;;
11854;SDS011;5987;53.140;8.904;2024-02-15T02:35:10;16.40;;;8.83;;
11854;SDS011;5987;53.140;8.904;2024-02-15T02:38:14;22.23;;;10.47;;
11854;SDS011;5987;53.140;8.904;2024-02-15T02:41:20;17.57;;;8.93;;
11854;SDS011;5987;53.140;8.904;2024-02-15T02:44:24;17.87;;;9.53;;
11854;SDS011;5987;53.140;8.904;2024-02-15T02:47:28;18.30;;;9.50;;
11854;SDS011;5987;53.140;8.904;2024-02-15T02:50:32;20.37;;;9.93;;
11854;SDS011;5987;53.140;8.904;2024-02-15T02:53:36;17.63;;;9.37;;
11854;SDS011;5987;53.140;8.904;2024-02-15T02:56:42;24.77;;;10.40;;
11854;SDS011;5987;53.140;8.904;2024-02-15T02:59:46;19.73;;;9.97;;
11854;SDS011;5987;53.140;8.904;2024-02-15T03:02:50;21.07;;;9.20;;
11854;SDS011;5987;53.140;8.904;2024-02-15T03:05:58;18.33;;;9.87;;
11854;SDS011;5987;53.140;8.904;2024-02-15T03:09:03;20.57;;;10.70;;
11854;SDS011;5987;53.140;8.904;2024-02-15T03:12:10;20.63;;;9.50;;
11854;SDS011;5987;53.140;8.904;2024-02-15T03:15:30;20.03;;;10.07;;
11854;SDS011;5987;53.140;8.904;2024-02-15T03:18:35;21.87;;;11.60;;
11854;SDS011;5987;53.140;8.904;2024-02-15T03:21:40;23.47;;;10.63;;
11854;SDS011;5987;53.140;8.904;2024-02-15T03:24:48;22.13;;;10.63;;
11854;SDS011;5987;53.140;8.904;2024-02-15T03:27:53;27.03;;;13.33;;
11854;SDS011;5987;53.140;8.904;2024-02-15T03:30:59;20.83;;;12.33;;
11854;SDS011;5987;53.140;8.904;2024-02-15T03:34:03;29.37;;;12.13;;
11854;SDS011;5987;53.140;8.904;2024-02-15T03:37:07;21.17;;;11.60;;
11854;SDS011;5987;53.140;8.904;2024-02-15T03:40:11;20.70;;;10.87;;
11854;SDS011;5987;53.140;8.904;2024-02-15T03:43:17;20.80;;;10.37;;
11854;SDS011;5987;53.140;8.904;2024-02-15T03:46:21;24.50;;;12.00;;
11854;SDS011;5987;53.140;8.904;2024-02-15T03:49:25;26.40;;;11.47;;
11854;SDS011;5987;53.140;8.904;2024-02-15T03:52:29;26.77;;;11.43;;
11854;SDS011;5987;53.140;8.904;2024-02-15T03:55:33;21.80;;;10.63;;
11854;SDS011;5987;53.140;8.904;2024-02-15T03:58:39;25.97;;;11.83;;
11854;SDS011;5987;53.140;8.904;2024-02-15T04:01:42;27.10;;;11.97;;
11854;SDS011;5987;53.140;8.904;2024-02-15T04:04:48;22.17;;;10.43;;
11854;SDS011;5987;53.140;8.904;2024-02-15T04:07:54;29.53;;;11.00;;
11854;SDS011;5987;53.140;8.904;2024-02-15T04:10:58;26.13;;;11.40;;
11854;SDS011;5987;53.140;8.904;2024-02-15T04:14:03;24.43;;;11.50;;
11854;SDS011;5987;53.140;8.904;2024-02-15T04:17:07;24.37;;;11.93;;
11854;SDS011;5987;53.140;8.904;2024-02-15T04:20:11;23.93;;;11.67;;
11854;SDS011;5987;53.140;8.904;2024-02-15T04:23:17;23.83;;;10.83;;
11854;SDS011;5987;53.140;8.904;2024-02-15T04:26:21;22.27;;;12.17;;
11854;SDS011;5987;53.140;8.904;2024-02-15T04:29:29;23.00;;;10.93;;
11854;SDS011;5987;53.140;8.904;2024-02-15T04:32:33;27.37;;;11.50;;
11854;SDS011;5987;53.140;8.904;2024-02-15T04:35:38;23.93;;;11.77;;
11854;SDS011;5987;53.140;8.904;2024-02-15T04:38:42;23.80;;;11.30;;
11854;SDS011;5987;53.140;8.904;2024-02-15T04:41:46;19.77;;;10.70;;
11854;SDS011;5987;53.140;8.904;2024-02-15T04:44:51;26.20;;;10.87;;
11854;SDS011;5987;53.140;8.904;2024-02-15T04:47:56;25.30;;;10.77;;
11854;SDS011;5987;53.140;8.904;2024-02-15T04:51:03;24.20;;;11.63;;
11854;SDS011;5987;53.140;8.904;2024-02-15T04:54:08;23.00;;;11.20;;
11854;SDS011;5987;53.140;8.904;2024-02-15T04:57:14;35.47;;;12.97;;
11854;SDS011;5987;53.140;8.904;2024-02-15T05:00:20;27.10;;;12.03;;
11854;SDS011;5987;53.140;8.904;2024-02-15T05:03:27;26.90;;;12.73;;
11854;SDS011;5987;53.140;8.904;2024-02-15T05:06:31;23.70;;;11.30;;
11854;SDS011;5987;53.140;8.904;2024-02-15T05:09:35;28.20;;;11.73;;
11854;SDS011;5987;53.140;8.904;2024-02-15T05:12:39;25.33;;;11.17;;
11854;SDS011;5987;53.140;8.904;2024-02-15T05:15:45;27.60;;;11.77;;
11854;SDS011;5987;53.140;8.904;2024-02-15T05:18:49;25.73;;;12.63;;
11854;SDS011;5987;53.140;8.904;2024-02-15T05:21:53;26.23;;;12.13;;
11854;SDS011;5987;53.140;8.904;2024-02-15T05:24:57;26.27;;;12.10;;
11854;SDS011;5987;53.140;8.904;2024-02-15T05:28:01;22.57;;;10.83;;
11854;SDS011;5987;53.140;8.904;2024-02-15T05:31:10;23.87;;;12.27;;
11854;SDS011;5987;53.140;8.904;2024-02-15T05:34:18;26.23;;;11.87;;
11854;SDS011;5987;53.140;8.904;2024-02-15T05:37:22;22.40;;;11.00;;
11854;SDS011;5987;53.140;8.904;2024-02-15T05:40:26;26.10;;;12.23;;
11854;SDS011;5987;53.140;8.904;2024-02-15T05:43:30;24.97;;;12.50;;
11854;SDS011;5987;53.140;8.904;2024-02-15T05:46:39;23.57;;;11.97;;
11854;SDS011;5987;53.140;8.904;2024-02-15T05:49:43;23.47;;;10.60;;
11854;SDS011;5987;53.140;8.904;2024-02-15T05:52:48;21.53;;;10.83;;
11854;SDS011;5987;53.140;8.904;2024-02-15T05:55:54;23.90;;;12.83;;
11854;SDS011;5987;53.140;8.904;2024-02-15T05:58:59;19.83;;;10.10;;
11854;SDS011;5987;53.140;8.904;2024-02-15T06:02:05;26.87;;;10.23;;
11854;SDS011;5987;53.140;8.904;2024-02-15T06:05:09;21.23;;;9.97;;
11854;SDS011;5987;53.140;8.904;2024-02-15T06:08:13;26.03;;;11.43;;
11854;SDS011;5987;53.140;8.904;2024-02-15T06:11:18;26.77;;;11.73;;
11854;SDS011;5987;53.140;8.904;2024-02-15T06:14:22;25.63;;;11.57;;
11854;SDS011;5987;53.140;8.904;2024-02-15T06:17:30;24.70;;;12.80;;
11854;SDS011;5987;53.140;8.904;2024-02-15T06:20:34;21.77;;;11.27;;
11854;SDS011;5987;53.140;8.904;2024-02-15T06:23:40;22.77;;;10.63;;
11854;SDS011;5987;53.140;8.904;2024-02-15T06:26:44;26.87;;;13.07;;
11854;SDS011;5987;53.140;8.904;2024-02-15T06:29:50;24.93;;;11.70;;
11854;SDS011;5987;53.140;8.904;2024-02-15T06:33:13;19.23;;;11.20;;
11854;SDS011;5987;53.140;8.904;2024-02-15T06:36:39;24.70;;;10.80;;
11854;SDS011;5987;53.140;8.904;2024-02-15T06:40:00;23.63;;;11.03;;
11854;SDS011;5987;53.140;8.904;2024-02-15T06:43:05;25.00;;;11.33;;
11854;SDS011;5987;53.140;8.904;2024-02-15T06:46:10;26.00;;;12.53;;
11854;SDS011;5987;53.140;8.904;2024-02-15T06:49:16;22.80;;;12.30;;
11854;SDS011;5987;53.140;8.904;2024-02-15T06:52:20;24.27;;;10.60;;
11854;SDS011;5987;53.140;8.904;2024-02-15T06:55:24;24.03;;;10.00;;
11854;SDS011;5987;53.140;8.904;2024-02-15T06:58:28;25.73;;;12.03;;
11854;SDS011;5987;53.140;8.904;2024-02-15T07:01:31;24.50;;;11.30;;
11854;SDS011;5987;53.140;8.904;2024-02-15T07:04:38;21.00;;;10.30;;
11854;SDS011;5987;53.140;8.904;2024-02-15T07:07:43;21.33;;;10.87;;
11854;SDS011;5987;53.140;8.904;2024-02-15T07:10:47;22.37;;;10.43;;
11854;SDS011;5987;53.140;8.904;2024-02-15T07:13:51;24.77;;;11.10;;
11854;SDS011;5987;53.140;8.904;2024-02-15T07:16:56;24.83;;;11.77;;
11854;SDS011;5987;53.140;8.904;2024-02-15T07:20:02;24.27;;;10.43;;
11854;SDS011;5987;53.140;8.904;2024-02-15T07:23:07;25.13;;;11.60;;
11854;SDS011;5987;53.140;8.904;2024-02-15T07:26:10;25.10;;;11.00;;
11854;SDS011;5987;53.140;8.904;2024-02-15T07:29:15;24.57;;;9.93;;
11854;SDS011;5987;53.140;8.904;2024-02-15T07:32:19;22.07;;;11.27;;
11854;SDS011;5987;53.140;8.904;2024-02-15T07:35:25;21.10;;;10.80;;
11854;SDS011;5987;53.140;8.904;2024-02-15T07:38:31;22.10;;;10.37;;
11854;SDS011;5987;53.140;8.904;2024-02-15T07:41:36;19.93;;;10.00;;
11854;SDS011;5987;53.140;8.904;2024-02-15T07:44:40;22.80;;;9.80;;
11854;SDS011;5987;53.140;8.904;2024-02-15T07:47:44;21.53;;;9.87;;
11854;SDS011;5987;53.140;8.904;2024-02-15T07:50:51;22.50;;;11.03;;
11854;SDS011;5987;53.140;8.904;2024-02-15T07:53:56;22.77;;;10.73;;
11854;SDS011;5987;53.140;8.904;2024-02-15T07:57:00;27.03;;;11.53;;
11854;SDS011;5987;53.140;8.904;2024-02-15T08:00:04;20.90;;;11.43;;
11854;SDS011;5987;53.140;8.904;2024-02-15T08:03:12;18.53;;;10.63;;
11854;SDS011;5987;53.140;8.904;2024-02-15T08:06:18;24.83;;;10.80;;
11854;SDS011;5987;53.140;8.904;2024-02-15T08:09:27;23.97;;;11.50;;
11854;SDS011;5987;53.140;8.904;2024-02-15T08:12:31;22.87;;;11.63;;
11854;SDS011;5987;53.140;8.904;2024-02-15T08:15:34;21.83;;;11.90;;
11854;SDS011;5987;53.140;8.904;2024-02-15T08:18:39;21.80;;;11.23;;
11854;SDS011;5987;53.140;8.904;2024-02-15T08:21:47;19.53;;;10.97;;
11854;SDS011;5987;53.140;8.904;2024-02-15T08:24:54;23.33;;;10.87;;
11854;SDS011;5987;53.140;8.904;2024-02-15T08:27:58;25.13;;;12.10;;
11854;SDS011;5987;53.140;8.904;2024-02-15T08:31:07;26.10;;;12.43;;
11854;SDS011;5987;53.140;8.904;2024-02-15T08:34:11;22.60;;;12.10;;
11854;SDS011;5987;53.140;8.904;2024-02-15T08:37:17;25.33;;;11.60;;
11854;SDS011;5987;53.140;8.904;2024-02-15T08:40:21;21.87;;;12.00;;
11854;SDS011;5987;53.140;8.904;2024-02-15T08:43:27;28.77;;;12.47;;
11854;SDS011;5987;53.140;8.904;2024-02-15T08:46:31;23.03;;;13.17;;
11854;SDS011;5987;53.140;8.904;2024-02-15T08:49:35;21.23;;;12.80;;
11854;SDS011;5987;53.140;8.904;2024-02-15T08:52:42;26.07;;;12.40;;
11854;SDS011;5987;53.140;8.904;2024-02-15T08:55:46;23.33;;;12.83;;
11854;SDS011;5987;53.140;8.904;2024-02-15T08:58:50;26.27;;;14.00;;
11854;SDS011;5987;53.140;8.904;2024-02-15T09:02:14;23.33;;;13.03;;
11854;SDS011;5987;53.140;8.904;2024-02-15T09:05:38;23.93;;;13.90;;
11854;SDS011;5987;53.140;8.904;2024-02-15T09:09:05;26.87;;;14.47;;
11854;SDS011;5987;53.140;8.904;2024-02-15T09:12:08;25.47;;;14.13;;
11854;SDS011;5987;53.140;8.904;2024-02-15T09:15:16;23.87;;;13.80;;
11854;SDS011;5987;53.140;8.904;2024-02-15T09:18:20;30.00;;;14.77;;
11854;SDS011;5987;53.140;8.904;2024-02-15T09:21:25;29.60;;;15.33;;
11854;SDS011;5987;53.140;8.904;2024-02-15T09:24:31;27.20;;;15.03;;
11854;SDS011;5987;53.140;8.904;2024-02-15T09:27:35;29.67;;;15.47;;
11854;SDS011;5987;53.140;8.904;2024-02-15T09:30:39;31.43;;;16.33;;
11854;SDS011;5987;53.140;8.904;2024-02-15T09:33:43;26.27;;;15.57;;
11854;SDS011;5987;53.140;8.904;2024-02-15T09:36:47;29.50;;;15.63;;
11854;SDS011;5987;53.140;8.904;2024-02-15T09:39:52;31.47;;;15.77;;
11854;SDS011;5987;53.140;8.904;2024-02-15T09:42:57;32.20;;;15.53;;
11854;SDS011;5987;53.140;8.904;2024-02-15T09:46:01;32.03;;;15.23;;
11854;SDS011;5987;53.140;8.904;2024-02-15T09:49:06;27.73;;;16.83;;
11854;SDS011;5987;53.140;8.904;2024-02-15T09:52:10;31.83;;;14.50;;
11854;SDS011;5987;53.140;8.904;2024-02-15T09:55:19;31.73;;;16.00;;
11854;SDS011;5987;53.140;8.904;2024-02-15T09:58:25;29.13;;;15.00;;
11854;SDS011;5987;53.140;8.904;2024-02-15T10:01:33;26.97;;;14.80;;
11854;SDS011;5987;53.140;8.904;2024-02-15T10:04:42;27.87;;;14.97;;
11854;SDS011;5987;53.140;8.904;2024-02-15T10:07:51;27.77;;;14.77;;
11854;SDS011;5987;53.140;8.904;2024-02-15T10:11:06;29.40;;;16.37;;
11854;SDS011;5987;53.140;8.904;2024-02-15T10:14:11;29.20;;;15.40;;
11854;SDS011;5987;53.140;8.904;2024-02-15T10:17:17;32.70;;;16.00;;
11854;SDS011;5987;53.140;8.904;2024-02-15T10:20:22;32.67;;;16.80;;
11854;SDS011;5987;53.140;8.904;2024-02-15T10:23:27;34.77;;;15.50;;
11854;SDS011;5987;53.140;8.904;2024-02-15T10:26:32;30.87;;;15.70;;
11854;SDS011;5987;53.140;8.904;2024-02-15T10:29:37;38.80;;;17.70;;
11854;SDS011;5987;53.140;8.904;2024-02-15T10:32:42;28.80;;;16.07;;
11854;SDS011;5987;53.140;8.904;2024-02-15T10:35:47;33.87;;;16.67;;
11854;SDS011;5987;53.140;8.904;2024-02-15T10:38:51;30.87;;;16.67;;
11854;SDS011;5987;53.140;8.904;2024-02-15T10:41:57;33.37;;;16.63;;
11854;SDS011;5987;53.140;8.904;2024-02-15T10:45:01;32.33;;;16.67;;
11854;SDS011;5987;53.140;8.904;2024-02-15T10:48:13;32.90;;;15.77;;
11854;SDS011;5987;53.140;8.904;2024-02-15T10:51:17;32.70;;;17.03;;
11854;SDS011;5987;53.140;8.904;2024-02-15T10:54:29;29.77;;;14.60;;
11854;SDS011;5987;53.140;8.904;2024-02-15T10:57:54;28.63;;;14.17;;
11854;SDS011;5987;53.140;8.904;2024-02-15T11:01:06;32.40;;;16.10;;
11854;SDS011;5987;53.140;8.904;2024-02-15T11:04:17;30.20;;;14.97;;
11854;SDS011;5987;53.140;8.904;2024-02-15T11:07:24;27.30;;;13.73;;
11854;SDS011;5987;53.140;8.904;2024-02-15T11:10:33;27.90;;;15.47;;
11854;SDS011;5987;53.140;8.904;2024-02-15T11:13:40;26.97;;;14.07;;
11854;SDS011;5987;53.140;8.904;2024-02-15T11:16:44;24.60;;;14.37;;
11854;SDS011;5987;53.140;8.904;2024-02-15T11:19:52;31.63;;;13.80;;
11854;SDS011;5987;53.140;8.904;2024-02-15T11:22:57;21.90;;;12.20;;
11854;SDS011;5987;53.140;8.904;2024-02-15T11:26:03;22.07;;;12.53;;
11854;SDS011;5987;53.140;8.904;2024-02-15T11:29:13;22.13;;;13.70;;
11854;SDS011;5987;53.140;8.904;2024-02-15T11:32:54;20.97;;;11.70;;
11854;SDS011;5987;53.140;8.904;2024-02-15T11:36:02;20.67;;;11.43;;
11854;SDS011;5987;53.140;8.904;2024-02-15T11:42:45;18.03;;;11.57;;
11854;SDS011;5987;53.140;8.904;2024-02-15T11:45:54;19.87;;;11.97;;
11854;SDS011;5987;53.140;8.904;2024-02-15T11:49:01;24.83;;;11.80;;
11854;SDS011;5987;53.140;8.904;2024-02-15T11:52:08;17.93;;;11.70;;
11854;SDS011;5987;53.140;8.904;2024-02-15T11:55:13;16.97;;;11.83;;
11854;SDS011;5987;53.140;8.904;2024-02-15T11:58:20;17.37;;;11.10;;
11854;SDS011;5987;53.140;8.904;2024-02-15T12:01:33;20.30;;;11.70;;
11854;SDS011;5987;53.140;8.904;2024-02-15T12:04:54;18.03;;;11.57;;
11854;SDS011;5987;53.140;8.904;2024-02-15T12:08:16;17.77;;;11.23;;
11854;SDS011;5987;53.140;8.904;2024-02-15T12:11:37;17.23;;;11.17;;
11854;SDS011;5987;53.140;8.904;2024-02-15T12:15:00;18.57;;;10.73;;
11854;SDS011;5987;53.140;8.904;2024-02-15T12:18:23;17.37;;;10.97;;
11854;SDS011;5987;53.140;8.904;2024-02-15T12:21:45;17.33;;;9.50;;
11854;SDS011;5987;53.140;8.904;2024-02-15T12:24:58;16.93;;;11.10;;
11854;SDS011;5987;53.140;8.904;2024-02-15T12:28:07;17.13;;;11.13;;
11854;SDS011;5987;53.140;8.904;2024-02-15T12:31:11;18.57;;;12.77;;
11854;SDS011;5987;53.140;8.904;2024-02-15T12:34:17;17.83;;;10.50;;
11854;SDS011;5987;53.140;8.904;2024-02-15T12:37:24;17.07;;;12.27;;
11854;SDS011;5987;53.140;8.904;2024-02-15T12:40:30;15.80;;;10.07;;
11854;SDS011;5987;53.140;8.904;2024-02-15T12:43:35;15.63;;;10.33;;
11854;SDS011;5987;53.140;8.904;2024-02-15T12:46:39;17.07;;;10.20;;
11854;SDS011;5987;53.140;8.904;2024-02-15T12:49:45;19.70;;;10.60;;
11854;SDS011;5987;53.140;8.904;2024-02-15T12:52:49;14.50;;;9.33;;
11854;SDS011;5987;53.140;8.904;2024-02-15T12:55:55;13.80;;;9.17;;
11854;SDS011;5987;53.140;8.904;2024-02-15T12:58:59;12.77;;;9.40;;
11854;SDS011;5987;53.140;8.904;2024-02-15T13:02:08;14.20;;;9.30;;
11854;SDS011;5987;53.140;8.904;2024-02-15T13:05:17;13.93;;;9.17;;
11854;SDS011;5987;53.140;8.904;2024-02-15T13:08:23;15.10;;;9.27;;
11854;SDS011;5987;53.140;8.904;2024-02-15T13:11:27;13.27;;;8.37;;
11854;SDS011;5987;53.140;8.904;2024-02-15T13:14:31;15.27;;;9.57;;
11854;SDS011;5987;53.140;8.904;2024-02-15T13:17:38;10.50;;;8.03;;
11854;SDS011;5987;53.140;8.904;2024-02-15T13:20:43;11.00;;;7.87;;
11854;SDS011;5987;53.140;8.904;2024-02-15T13:23:50;15.07;;;8.87;;
11854;SDS011;5987;53.140;8.904;2024-02-15T13:26:53;10.83;;;9.10;;
11854;SDS011;5987;53.140;8.904;2024-02-15T13:30:00;10.10;;;8.37;;
11854;SDS011;5987;53.140;8.904;2024-02-15T13:33:04;11.77;;;8.27;;
11854;SDS011;5987;53.140;8.904;2024-02-15T13:36:10;13.17;;;7.90;;
11854;SDS011;5987;53.140;8.904;2024-02-15T13:39:14;12.70;;;7.70;;
11854;SDS011;5987;53.140;8.904;2024-02-15T13:42:20;10.37;;;8.07;;
11854;SDS011;5987;53.140;8.904;2024-02-15T13:45:29;11.03;;;8.67;;
11854;SDS011;5987;53.140;8.904;2024-02-15T13:48:41;11.47;;;8.23;;
11854;SDS011;5987;53.140;8.904;2024-02-15T13:51:47;11.03;;;7.80;;
11854;SDS011;5987;53.140;8.904;2024-02-15T13:54:53;10.53;;;8.27;;
11854;SDS011;5987;53.140;8.904;2024-02-15T13:57:57;12.13;;;7.93;;
11854;SDS011;5987;53.140;8.904;2024-02-15T14:01:02;13.27;;;8.20;;
11854;SDS011;5987;53.140;8.904;2024-02-15T14:04:06;10.07;;;7.73;;
11854;SDS011;5987;53.140;8.904;2024-02-15T14:07:12;10.03;;;7.87;;
11854;SDS011;5987;53.140;8.904;2024-02-15T14:10:16;10.77;;;8.03;;
11854;SDS011;5987;53.140;8.904;2024-02-15T14:13:22;10.50;;;7.80;;
11854;SDS011;5987;53.140;8.904;2024-02-15T14:16:26;8.50;;;7.03;;
11854;SDS011;5987;53.140;8.904;2024-02-15T14:19:34;8.53;;;6.53;;
11854;SDS011;5987;53.140;8.904;2024-02-15T14:22:40;8.87;;;6.53;;
11854;SDS011;5987;53.140;8.904;2024-02-15T14:25:45;7.27;;;6.53;;
11854;SDS011;5987;53.140;8.904;2024-02-15T14:28:51;11.80;;;7.40;;
11854;SDS011;5987;53.140;8.904;2024-02-15T14:31:55;9.17;;;7.27;;
11854;SDS011;5987;53.140;8.904;2024-02-15T14:35:16;13.03;;;8.60;;
11854;SDS011;5987;53.140;8.904;2024-02-15T14:38:23;11.97;;;7.77;;
11854;SDS011;5987;53.140;8.904;2024-02-15T14:41:29;10.70;;;7.70;;
11854;SDS011;5987;53.140;8.904;2024-02-15T14:44:34;8.53;;;7.50;;
11854;SDS011;5987;53.140;8.904;2024-02-15T14:47:38;9.90;;;7.37;;
11854;SDS011;5987;53.140;8.904;2024-02-15T14:50:43;9.17;;;7.33;;
11854;SDS011;5987;53.140;8.904;2024-02-15T14:53:49;7.73;;;6.67;;
11854;SDS011;5987;53.140;8.904;2024-02-15T14:56:53;10.10;;;6.83;;
11854;SDS011;5987;53.140;8.904;2024-02-15T14:59:56;7.80;;;6.73;;
11854;SDS011;5987;53.140;8.904;2024-02-15T15:03:00;8.07;;;6.57;;
11854;SDS011;5987;53.140;8.904;2024-02-15T15:06:05;8.77;;;7.33;;
11854;SDS011;5987;53.140;8.904;2024-02-15T15:09:30;9.47;;;6.40;;
11854;SDS011;5987;53.140;8.904;2024-02-15T15:12:53;7.37;;;6.40;;
11854;SDS011;5987;53.140;8.904;2024-02-15T15:15:58;16.10;;;6.83;;
11854;SDS011;5987;53.140;8.904;2024-02-15T15:19:02;7.07;;;5.83;;
11854;SDS011;5987;53.140;8.904;2024-02-15T15:22:06;9.17;;;6.63;;
11854;SDS011;5987;53.140;8.904;2024-02-15T15:25:11;9.17;;;6.77;;
11854;SDS011;5987;53.140;8.904;2024-02-15T15:28:15;9.77;;;6.17;;
11854;SDS011;5987;53.140;8.904;2024-02-15T15:31:19;6.50;;;5.87;;
11854;SDS011;5987;53.140;8.904;2024-02-15T15:34:24;12.97;;;6.00;;
11854;SDS011;5987;53.140;8.904;2024-02-15T15:37:28;6.03;;;5.40;;
11854;SDS011;5987;53.140;8.904;2024-02-15T15:40:34;5.90;;;5.20;;
11854;SDS011;5987;53.140;8.904;2024-02-15T15:43:37;6.27;;;5.30;;
11854;SDS011;5987;53.140;8.904;2024-02-15T15:46:42;9.80;;;5.90;;
11854;SDS011;5987;53.140;8.904;2024-02-15T15:49:45;6.60;;;4.67;;
11854;SDS011;5987;53.140;8.904;2024-02-15T15:52:49;9.23;;;5.63;;
11854;SDS011;5987;53.140;8.904;2024-02-15T15:55:57;5.90;;;4.33;;
11854;SDS011;5987;53.140;8.904;2024-02-15T15:59:01;6.67;;;4.63;;
11854;SDS011;5987;53.140;8.904;2024-02-15T16:02:07;6.90;;;5.37;;
11854;SDS011;5987;53.140;8.904;2024-02-15T16:05:11;7.30;;;5.20;;
11854;SDS011;5987;53.140;8.904;2024-02-15T16:08:16;7.40;;;4.80;;
11854;SDS011;5987;53.140;8.904;2024-02-15T16:11:21;6.83;;;5.07;;
11854;SDS011;5987;53.140;8.904;2024-02-15T16:14:25;7.33;;;4.97;;
11854;SDS011;5987;53.140;8.904;2024-02-15T16:17:29;8.03;;;5.07;;
11854;SDS011;5987;53.140;8.904;2024-02-15T16:20:34;8.43;;;4.77;;
11854;SDS011;5987;53.140;8.904;2024-02-15T16:23:37;5.97;;;4.33;;
11854;SDS011;5987;53.140;8.904;2024-02-15T16:26:43;5.87;;;5.17;;
11854;SDS011;5987;53.140;8.904;2024-02-15T16:29:47;6.10;;;4.40;;
11854;SDS011;5987;53.140;8.904;2024-02-15T16:32:52;4.37;;;3.97;;
11854;SDS011;5987;53.140;8.904;2024-02-15T16:35:56;6.77;;;5.10;;
11854;SDS011;5987;53.140;8.904;2024-02-15T16:39:00;6.10;;;4.47;;
11854;SDS011;5987;53.140;8.904;2024-02-15T16:42:05;7.87;;;4.57;;
11854;SDS011;5987;53.140;8.904;2024-02-15T16:45:09;6.90;;;4.27;;
11854;SDS011;5987;53.140;8.904;2024-02-15T16:48:14;6.00;;;4.33;;
11854;SDS011;5987;53.140;8.904;2024-02-15T16:51:18;8.33;;;4.97;;
11854;SDS011;5987;53.140;8.904;2024-02-15T16:54:24;5.67;;;5.03;;
11854;SDS011;5987;53.140;8.904;2024-02-15T16:57:29;7.00;;;5.30;;
11854;SDS011;5987;53.140;8.904;2024-02-15T17:00:33;7.90;;;5.37;;
11854;SDS011;5987;53.140;8.904;2024-02-15T17:03:37;7.13;;;5.30;;
11854;SDS011;5987;53.140;8.904;2024-02-15T17:06:41;7.13;;;5.00;;
11854;SDS011;5987;53.140;8.904;2024-02-15T17:09:45;12.07;;;4.77;;
11854;SDS011;5987;53.140;8.904;2024-02-15T17:12:50;7.53;;;5.37;;
11854;SDS011;5987;53.140;8.904;2024-02-15T17:15:55;10.93;;;7.87;;
11854;SDS011;5987;53.140;8.904;2024-02-15T17:18:59;48.83;;;32.50;;
11854;SDS011;5987;53.140;8.904;2024-02-15T17:22:03;56.30;;;42.63;;
11854;SDS011;5987;53.140;8.904;2024-02-15T17:25:08;38.60;;;27.70;;
11854;SDS011;5987;53.140;8.904;2024-02-15T17:28:15;17.70;;;12.23;;
11854;SDS011;5987;53.140;8.904;2024-02-15T17:31:20;14.93;;;10.47;;
11854;SDS011;5987;53.140;8.904;2024-02-15T17:34:26;11.03;;;7.43;;
11854;SDS011;5987;53.140;8.904;2024-02-15T17:37:32;5.07;;;4.53;;
11854;SDS011;5987;53.140;8.904;2024-02-15T17:40:36;5.27;;;4.50;;
11854;SDS011;5987;53.140;8.904;2024-02-15T17:43:42;7.40;;;4.77;;
11854;SDS011;5987;53.140;8.904;2024-02-15T17:46:45;20.57;;;14.40;;
11854;SDS011;5987;53.140;8.904;2024-02-15T17:49:49;13.10;;;9.47;;
11854;SDS011;5987;53.140;8.904;2024-02-15T17:52:55;9.83;;;6.70;;
11854;SDS011;5987;53.140;8.904;2024-02-15T17:55:58;12.40;;;7.97;;
11854;SDS011;5987;53.140;8.904;2024-02-15T17:59:04;9.20;;;5.37;;
11854;SDS011;5987;53.140;8.904;2024-02-15T18:02:11;4.63;;;4.23;;
11854;SDS011;5987;53.140;8.904;2024-02-15T18:05:16;7.10;;;5.93;;
11854;SDS011;5987;53.140;8.904;2024-02-15T18:08:22;19.73;;;11.67;;
11854;SDS011;5987;53.140;8.904;2024-02-15T18:11:27;29.73;;;20.00;;
11854;SDS011;5987;53.140;8.904;2024-02-15T18:14:32;11.77;;;7.73;;
11854;SDS011;5987;53.140;8.904;2024-02-15T18:17:36;16.23;;;13.77;;
11854;SDS011;5987;53.140;8.904;2024-02-15T18:20:42;21.20;;;16.47;;
11854;SDS011;5987;53.140;8.904;2024-02-15T18:23:46;14.70;;;10.57;;
11854;SDS011;5987;53.140;8.904;2024-02-15T18:26:50;12.07;;;8.87;;
11854;SDS011;5987;53.140;8.904;2024-02-15T18:29:57;7.50;;;4.97;;
11854;SDS011;5987;53.140;8.904;2024-02-15T18:33:01;33.93;;;25.77;;
11854;SDS011;5987;53.140;8.904;2024-02-15T18:36:06;21.70;;;13.13;;
11854;SDS011;5987;53.140;8.904;2024-02-15T18:39:10;10.33;;;7.23;;